< < Back
Terminal Aerodrome Forecast


Current Version              Previous Versions:   1  2  3  4  5  6  7  8  9  

Terminal Aerodrome Forecast

461
FTUS42 KTAE 311120
TAFABY
TAF
KABY 311120Z 3112/0112 06003KT 5SM BR SCT002 BKN010
     FM311400 06005KT P6SM SCT030
     FM311900 18004KT P6SM VCSH BKN040
     FM010000 17003KT P6SM SCT040 SCT250=



Latest METAR

723
SAUS70 KWBC 311500 RRA
MTRABY
METAR KABY 311453Z 05004KT 10SM BKN017 BKN027 28/22 A3012 RMK AO2 SLP197
T02780222 53016


USA.gov is the U.S. government's official web portal to all federal, state and local government web resources and services.